Terminal Aerodrome Forecast
Issued by NWS

Home | Current Version | Previous Version | Text Only | Print | Product List | Glossary On
Versions: 1 2 3 4 5 6 7 8 9 10 11 12 13 14 15
603
FTUS45 KFGZ 271300 AAA
TAFPRC
TAF AMD
KPRC 271300Z 2713/2812 VRB05KT P6SM BKN100 BKN200
      TEMPO 2713/2716 -SHRA OVC090
     FM271800 10008KT P6SM SCT070 OVC120
      TEMPO 2718/2722 P6SM -TSRA BKN050CB
     FM272200 10008KT P6SM OVC100
      TEMPO 2722/2724 -TSRA BKN050CB
     FM280000 09005KT P6SM SCT050 BKN120 PROB30 2800/2806 P6SM -TSRA
      BKN050CB=

USA.gov is the U.S. government's official web portal to all federal, state and local government web resources and services.